SJX002 VNKT-OPSD
Flight info
| Callsign | SJX002 |
|---|---|
| Flight time | N/A |
| Altitude | 36000 |
| Route | DARKE1F NARAN DCT HW DCT KNG DCT ATNUS DCT MESAR DCT KAGLO/N0460F370 DCT BUNGI DCT DELDA DCT BIREB |
| Aircraft | A21N/M-SDE3FGHIRWY/LB1 |
Departure
| Time | 2026-04-29 00:16 |
|---|---|
| Airport | Tribhuvan International Airport (VNKT) |
Arrival
| Time | N/A |
|---|---|
| Airport | Skardu International Airport (OPSD) |
| Time | Latitude | Longitude | Altitude | Speed | Heading |
|---|---|---|---|---|---|
| 2026-04-28 23:26 | 27.69989 | 85.35844 | 4434 ft | 0 kts | 291° |
| 2026-04-29 00:02 | 27.69988 | 85.35847 | 4434 ft | 2 kts | 291° |
| 2026-04-29 00:02 | 27.69983 | 85.35863 | 4434 ft | 2 kts | 291° |
| 2026-04-29 00:03 | 27.69977 | 85.35879 | 4434 ft | 2 kts | 291° |
| 2026-04-29 00:03 | 27.69974 | 85.35889 | 4434 ft | 2 kts | 287° |
| 2026-04-29 00:03 | 27.69972 | 85.35905 | 4434 ft | 2 kts | 265° |
| 2026-04-29 00:03 | 27.69975 | 85.35922 | 4435 ft | 2 kts | 248° |
| 2026-04-29 00:04 | 27.69982 | 85.35937 | 4435 ft | 2 kts | 231° |
| 2026-04-29 00:04 | 27.69992 | 85.35948 | 4436 ft | 2 kts | 213° |
| 2026-04-29 00:04 | 27.70000 | 85.35953 | 4436 ft | 1 kts | 203° |
| 2026-04-29 00:04 | 27.70006 | 85.35956 | 4436 ft | 0 kts | 201° |
| 2026-04-29 00:08 | 27.70002 | 85.35954 | 4436 ft | 2 kts | 201° |
| 2026-04-29 00:08 | 27.69973 | 85.35941 | 4435 ft | 6 kts | 202° |
| 2026-04-29 00:08 | 27.69912 | 85.35913 | 4432 ft | 11 kts | 202° |
| 2026-04-29 00:08 | 27.69822 | 85.35873 | 4427 ft | 16 kts | 202° |
| 2026-04-29 00:09 | 27.69699 | 85.35816 | 4418 ft | 21 kts | 202° |
| 2026-04-29 00:09 | 27.69541 | 85.35744 | 4405 ft | 25 kts | 201° |
| 2026-04-29 00:09 | 27.69390 | 85.35676 | 4394 ft | 25 kts | 201° |
| 2026-04-29 00:09 | 27.69223 | 85.35597 | 4379 ft | 21 kts | 201° |
| 2026-04-29 00:10 | 27.69131 | 85.35559 | 4374 ft | 10 kts | 192° |
| 2026-04-29 00:10 | 27.69118 | 85.35557 | 4373 ft | 0 kts | 182° |
| 2026-04-29 00:11 | 27.69108 | 85.35558 | 4373 ft | 4 kts | 172° |
| 2026-04-29 00:11 | 27.69074 | 85.35587 | 4372 ft | 7 kts | 126° |
| 2026-04-29 00:11 | 27.68951 | 85.35592 | 4367 ft | 14 kts | 202° |
| 2026-04-29 00:12 | 27.68846 | 85.35544 | 4364 ft | 17 kts | 201° |
| 2026-04-29 00:12 | 27.68724 | 85.35490 | 4360 ft | 20 kts | 201° |
| 2026-04-29 00:12 | 27.68589 | 85.35430 | 4358 ft | 20 kts | 201° |
| 2026-04-29 00:12 | 27.68453 | 85.35370 | 4357 ft | 21 kts | 201° |
| 2026-04-29 00:13 | 27.68323 | 85.35291 | 4356 ft | 21 kts | 226° |
| 2026-04-29 00:13 | 27.68295 | 85.35256 | 4356 ft | 0 kts | 228° |
| 2026-04-29 00:13 | 27.68284 | 85.35242 | 4356 ft | 4 kts | 228° |
| 2026-04-29 00:13 | 27.68250 | 85.35210 | 4356 ft | 8 kts | 211° |
| 2026-04-29 00:14 | 27.68185 | 85.35198 | 4356 ft | 10 kts | 155° |
| 2026-04-29 00:14 | 27.68190 | 85.35252 | 4356 ft | 6 kts | 17° |
| 2026-04-29 00:14 | 27.68223 | 85.35264 | 4356 ft | 0 kts | 21° |
| 2026-04-29 00:14 | 27.68226 | 85.35265 | 4356 ft | 0 kts | 21° |
| 2026-04-29 00:15 | 27.68227 | 85.35265 | 4356 ft | 0 kts | 21° |
| 2026-04-29 00:15 | 27.68228 | 85.35265 | 4356 ft | 0 kts | 21° |
| 2026-04-29 00:15 | 27.68230 | 85.35266 | 4356 ft | 3 kts | 21° |
| 2026-04-29 00:15 | 27.68492 | 85.35385 | 4357 ft | 77 kts | 21° |
| 2026-04-29 00:16 | 27.69193 | 85.35704 | 4385 ft | 137 kts | 22° |
| 2026-04-29 00:16 | 27.70232 | 85.36189 | 4454 ft | 182 kts | 23° |
| 2026-04-29 00:16 | 27.71447 | 85.36746 | 4942 ft | 188 kts | 22° |
| 2026-04-29 00:16 | 27.72579 | 85.37349 | 5754 ft | 177 kts | 35° |
| 2026-04-29 00:17 | 27.73439 | 85.38287 | 6369 ft | 176 kts | 54° |
| 2026-04-29 00:17 | 27.73984 | 85.39585 | 6672 ft | 188 kts | 76° |
| 2026-04-29 00:17 | 27.74115 | 85.41102 | 6964 ft | 202 kts | 89° |
| 2026-04-29 00:17 | 27.74091 | 85.42727 | 7252 ft | 217 kts | 94° |
| 2026-04-29 00:18 | 27.73713 | 85.44433 | 7606 ft | 227 kts | 116° |
| 2026-04-29 00:18 | 27.72804 | 85.45864 | 8095 ft | 229 kts | 137° |
| 2026-04-29 00:18 | 27.71467 | 85.46845 | 8619 ft | 229 kts | 160° |
| 2026-04-29 00:18 | 27.69944 | 85.47198 | 9146 ft | 227 kts | 181° |
| 2026-04-29 00:19 | 27.68321 | 85.46973 | 9462 ft | 241 kts | 197° |
| 2026-04-29 00:19 | 27.66740 | 85.46223 | 9812 ft | 255 kts | 213° |
| 2026-04-29 00:19 | 27.65348 | 85.44945 | 10334 ft | 261 kts | 230° |
| 2026-04-29 00:19 | 27.64324 | 85.43246 | 11004 ft | 261 kts | 246° |
| 2026-04-29 00:20 | 27.63781 | 85.41316 | 11686 ft | 261 kts | 262° |
| 2026-04-29 00:20 | 27.63758 | 85.39297 | 12339 ft | 262 kts | 278° |
| 2026-04-29 00:20 | 27.64265 | 85.37335 | 13006 ft | 264 kts | 290° |
| 2026-04-29 00:20 | 27.64995 | 85.35380 | 13390 ft | 277 kts | 291° |
| 2026-04-29 00:21 | 27.65780 | 85.33350 | 13674 ft | 294 kts | 291° |
| 2026-04-29 00:21 | 27.66620 | 85.31169 | 13958 ft | 310 kts | 291° |
| 2026-04-29 00:21 | 27.67498 | 85.28872 | 14237 ft | 325 kts | 291° |
| 2026-04-29 00:21 | 27.68411 | 85.26474 | 14679 ft | 335 kts | 291° |
| 2026-04-29 00:22 | 27.69328 | 85.24059 | 15297 ft | 337 kts | 291° |
| 2026-04-29 00:22 | 27.70250 | 85.21626 | 15918 ft | 339 kts | 291° |
| 2026-04-29 00:22 | 27.71168 | 85.19208 | 16508 ft | 342 kts | 291° |
| 2026-04-29 00:22 | 27.72105 | 85.16727 | 17088 ft | 344 kts | 291° |
| 2026-04-29 00:23 | 27.73047 | 85.14233 | 17710 ft | 346 kts | 291° |
| 2026-04-29 00:23 | 27.73987 | 85.11742 | 18296 ft | 348 kts | 291° |
| 2026-04-29 00:23 | 27.74895 | 85.09212 | 18818 ft | 352 kts | 288° |
| 2026-04-29 00:23 | 27.75513 | 85.06516 | 19313 ft | 356 kts | 279° |
| 2026-04-29 00:24 | 27.75765 | 85.03769 | 19801 ft | 359 kts | 271° |
| 2026-04-29 00:24 | 27.75655 | 85.00963 | 20332 ft | 362 kts | 264° |
| 2026-04-29 00:24 | 27.75314 | 84.98120 | 20674 ft | 371 kts | 262° |
| 2026-04-29 00:24 | 27.74926 | 84.95214 | 20889 ft | 383 kts | 262° |
| 2026-04-29 00:25 | 27.74517 | 84.92194 | 21100 ft | 394 kts | 262° |
| 2026-04-29 00:25 | 27.74101 | 84.89093 | 21300 ft | 405 kts | 262° |
| 2026-04-29 00:25 | 27.73680 | 84.85941 | 21492 ft | 415 kts | 262° |
| 2026-04-29 00:25 | 27.73241 | 84.82642 | 21680 ft | 426 kts | 262° |
| 2026-04-29 00:26 | 27.72798 | 84.79305 | 21863 ft | 435 kts | 262° |
| 2026-04-29 00:26 | 27.72348 | 84.75913 | 22155 ft | 441 kts | 262° |
| 2026-04-29 00:26 | 27.71898 | 84.72530 | 22528 ft | 444 kts | 262° |
| 2026-04-29 00:26 | 27.71437 | 84.69074 | 22928 ft | 447 kts | 261° |
| 2026-04-29 00:27 | 27.70968 | 84.65582 | 23310 ft | 449 kts | 261° |
| 2026-04-29 00:27 | 27.70505 | 84.62138 | 23685 ft | 452 kts | 261° |
| 2026-04-29 00:27 | 27.70029 | 84.58593 | 24164 ft | 451 kts | 261° |
| 2026-04-29 00:27 | 27.69561 | 84.55115 | 24720 ft | 449 kts | 261° |
| 2026-04-29 00:28 | 27.69099 | 84.51682 | 25206 ft | 448 kts | 261° |
| 2026-04-29 00:28 | 27.68636 | 84.48219 | 25662 ft | 448 kts | 262° |
| 2026-04-29 00:28 | 27.68444 | 84.44717 | 26094 ft | 448 kts | 270° |
| 2026-04-29 00:28 | 27.68709 | 84.41230 | 26503 ft | 450 kts | 277° |
| 2026-04-29 00:29 | 27.69426 | 84.37786 | 26895 ft | 452 kts | 285° |
| 2026-04-29 00:29 | 27.70390 | 84.34403 | 27347 ft | 451 kts | 286° |
| 2026-04-29 00:29 | 27.71380 | 84.31053 | 27735 ft | 451 kts | 286° |
| 2026-04-29 00:29 | 27.72366 | 84.27735 | 28079 ft | 452 kts | 286° |
| 2026-04-29 00:30 | 27.73365 | 84.24359 | 28447 ft | 453 kts | 286° |
| 2026-04-29 00:30 | 27.74029 | 84.22106 | 28688 ft | 453 kts | 286° |
| 2026-04-29 00:30 | 27.75339 | 84.17645 | 29149 ft | 453 kts | 285° |
| 2026-04-29 00:30 | 27.76323 | 84.14285 | 29522 ft | 453 kts | 285° |
| 2026-04-29 00:31 | 27.77312 | 84.10902 | 29885 ft | 453 kts | 285° |
| 2026-04-29 00:31 | 27.78289 | 84.07547 | 30212 ft | 453 kts | 285° |
| 2026-04-29 00:31 | 27.79270 | 84.04176 | 30537 ft | 453 kts | 285° |
| 2026-04-29 00:31 | 27.80259 | 84.00771 | 30879 ft | 453 kts | 285° |
| 2026-04-29 00:32 | 27.81233 | 83.97420 | 31221 ft | 453 kts | 285° |
| 2026-04-29 00:32 | 27.82208 | 83.94063 | 31559 ft | 452 kts | 285° |
| 2026-04-29 00:32 | 27.83188 | 83.90683 | 31891 ft | 451 kts | 285° |
| 2026-04-29 00:32 | 27.84162 | 83.87322 | 32222 ft | 450 kts | 285° |
| 2026-04-29 00:33 | 27.85126 | 83.83990 | 32516 ft | 450 kts | 285° |
| 2026-04-29 00:33 | 27.86096 | 83.80635 | 32810 ft | 450 kts | 285° |
| 2026-04-29 00:33 | 27.87056 | 83.77310 | 33115 ft | 449 kts | 285° |
| 2026-04-29 00:33 | 27.88022 | 83.73959 | 33412 ft | 448 kts | 285° |
| 2026-04-29 00:34 | 27.88982 | 83.70628 | 33735 ft | 446 kts | 285° |
| 2026-04-29 00:34 | 27.89942 | 83.67290 | 34063 ft | 445 kts | 285° |
| 2026-04-29 00:34 | 27.90895 | 83.63975 | 34355 ft | 443 kts | 285° |
| 2026-04-29 00:34 | 27.91838 | 83.60686 | 34588 ft | 443 kts | 285° |
| 2026-04-29 00:35 | 27.92782 | 83.57394 | 34776 ft | 444 kts | 285° |
| 2026-04-29 00:35 | 27.93738 | 83.54060 | 34994 ft | 444 kts | 285° |
| 2026-04-29 00:35 | 27.94679 | 83.50773 | 35217 ft | 443 kts | 285° |
| 2026-04-29 00:35 | 27.95630 | 83.47451 | 35437 ft | 443 kts | 285° |
| 2026-04-29 00:36 | 27.96573 | 83.44155 | 35631 ft | 443 kts | 285° |
| 2026-04-29 00:36 | 27.97521 | 83.40834 | 35803 ft | 443 kts | 285° |
| 2026-04-29 00:36 | 27.98455 | 83.37556 | 35904 ft | 444 kts | 285° |
| 2026-04-29 00:37 | 28.00346 | 83.30901 | 35908 ft | 443 kts | 285° |
| 2026-04-29 00:37 | 28.02220 | 83.24290 | 35926 ft | 443 kts | 285° |
| 2026-04-29 00:38 | 28.04101 | 83.17642 | 35959 ft | 443 kts | 285° |
| 2026-04-29 00:38 | 28.05970 | 83.11038 | 35988 ft | 443 kts | 285° |
| 2026-04-29 00:39 | 28.07844 | 83.04410 | 35962 ft | 443 kts | 285° |
| 2026-04-29 00:39 | 28.09708 | 82.97798 | 35993 ft | 443 kts | 285° |
| 2026-04-29 00:40 | 28.11597 | 82.91159 | 35982 ft | 443 kts | 285° |
| 2026-04-29 00:40 | 28.13491 | 82.84499 | 35964 ft | 442 kts | 285° |
| 2026-04-29 00:41 | 28.15344 | 82.77921 | 35941 ft | 442 kts | 285° |
| 2026-04-29 00:41 | 28.17202 | 82.71282 | 35984 ft | 442 kts | 285° |
| 2026-04-29 00:42 | 28.19053 | 82.64656 | 35978 ft | 442 kts | 285° |
| 2026-04-29 00:42 | 28.20893 | 82.58050 | 36017 ft | 441 kts | 285° |
| 2026-04-29 00:43 | 28.22732 | 82.51433 | 36039 ft | 441 kts | 285° |
| 2026-04-29 00:43 | 28.24565 | 82.44824 | 36092 ft | 441 kts | 285° |
| 2026-04-29 00:44 | 28.26401 | 82.38191 | 36079 ft | 441 kts | 285° |
| 2026-04-29 00:44 | 28.28228 | 82.31564 | 36089 ft | 441 kts | 285° |
| 2026-04-29 00:45 | 28.30051 | 82.24928 | 36103 ft | 440 kts | 285° |
| 2026-04-29 00:45 | 28.31860 | 82.18333 | 36048 ft | 440 kts | 285° |
| 2026-04-29 00:46 | 28.33683 | 82.11683 | 36031 ft | 440 kts | 285° |
| 2026-04-29 00:46 | 28.35501 | 82.05048 | 36011 ft | 440 kts | 285° |
| 2026-04-29 00:47 | 28.37316 | 81.98402 | 35968 ft | 440 kts | 285° |
| 2026-04-29 00:47 | 28.39119 | 81.91793 | 35951 ft | 440 kts | 285° |
| 2026-04-29 00:48 | 28.40920 | 81.85169 | 35923 ft | 440 kts | 285° |
| 2026-04-29 00:48 | 28.42716 | 81.78554 | 35914 ft | 440 kts | 285° |
| 2026-04-29 00:49 | 28.44507 | 81.71948 | 35896 ft | 439 kts | 285° |
| 2026-04-29 00:49 | 28.46288 | 81.65358 | 35919 ft | 438 kts | 285° |
| 2026-04-29 00:50 | 28.48076 | 81.58731 | 35933 ft | 438 kts | 285° |
| 2026-04-29 00:50 | 28.49846 | 81.52155 | 35962 ft | 438 kts | 285° |
| 2026-04-29 00:51 | 28.51626 | 81.45530 | 35949 ft | 438 kts | 286° |
| 2026-04-29 00:51 | 28.53389 | 81.38959 | 35911 ft | 437 kts | 286° |
| 2026-04-29 00:52 | 28.55145 | 81.32390 | 35871 ft | 436 kts | 285° |
| 2026-04-29 00:52 | 28.56894 | 81.25809 | 35823 ft | 436 kts | 285° |
| 2026-04-29 00:53 | 28.58645 | 81.19223 | 35786 ft | 436 kts | 285° |
| 2026-04-29 00:53 | 28.60397 | 81.12630 | 35771 ft | 435 kts | 285° |
| 2026-04-29 00:54 | 28.62153 | 81.06006 | 35780 ft | 436 kts | 285° |
| 2026-04-29 00:54 | 28.63891 | 80.99434 | 35774 ft | 437 kts | 286° |
| 2026-04-29 00:55 | 28.65644 | 80.92793 | 35755 ft | 436 kts | 286° |
| 2026-04-29 00:55 | 28.67371 | 80.86244 | 35753 ft | 436 kts | 286° |
| 2026-04-29 00:56 | 28.69113 | 80.79621 | 35752 ft | 434 kts | 285° |
| 2026-04-29 00:56 | 28.70833 | 80.73064 | 35746 ft | 434 kts | 286° |
| 2026-04-29 00:57 | 28.72545 | 80.66528 | 35749 ft | 434 kts | 286° |
| 2026-04-29 00:57 | 28.74269 | 80.59923 | 35746 ft | 434 kts | 286° |
| 2026-04-29 00:58 | 28.75977 | 80.53376 | 35753 ft | 434 kts | 286° |
| 2026-04-29 00:58 | 28.77679 | 80.46831 | 35750 ft | 432 kts | 286° |
| 2026-04-29 00:59 | 28.79385 | 80.40259 | 35758 ft | 432 kts | 286° |
| 2026-04-29 00:59 | 28.81084 | 80.33692 | 35764 ft | 431 kts | 285° |
| 2026-04-29 01:00 | 28.82772 | 80.27132 | 35740 ft | 431 kts | 286° |
| 2026-04-29 01:00 | 28.84455 | 80.20586 | 35721 ft | 430 kts | 286° |
| 2026-04-29 01:01 | 28.86129 | 80.14078 | 35718 ft | 431 kts | 286° |
| 2026-04-29 01:01 | 28.87813 | 80.07518 | 35709 ft | 432 kts | 286° |
| 2026-04-29 01:02 | 28.89498 | 80.00938 | 35704 ft | 431 kts | 286° |
| 2026-04-29 01:02 | 28.91171 | 79.94397 | 35697 ft | 431 kts | 286° |
| 2026-04-29 01:03 | 28.92829 | 79.87897 | 35695 ft | 429 kts | 286° |
| 2026-04-29 01:03 | 28.94492 | 79.81363 | 35696 ft | 429 kts | 286° |
| 2026-04-29 01:04 | 28.96155 | 79.74821 | 35698 ft | 429 kts | 286° |
| 2026-04-29 01:04 | 28.97813 | 79.68278 | 35700 ft | 429 kts | 286° |
| 2026-04-29 01:05 | 28.99466 | 79.61739 | 35702 ft | 429 kts | 286° |
| 2026-04-29 01:05 | 29.01252 | 79.55282 | 35704 ft | 428 kts | 291° |
| 2026-04-29 01:06 | 29.03858 | 79.49249 | 35709 ft | 427 kts | 301° |
| 2026-04-29 01:06 | 29.07369 | 79.43748 | 35734 ft | 428 kts | 310° |
| 2026-04-29 01:07 | 29.11613 | 79.39016 | 35761 ft | 430 kts | 317° |
| 2026-04-29 01:07 | 29.16157 | 79.34581 | 35762 ft | 429 kts | 318° |
| 2026-04-29 01:08 | 29.20694 | 79.30126 | 35751 ft | 429 kts | 317° |
| 2026-04-29 01:08 | 29.25204 | 79.25682 | 35747 ft | 428 kts | 317° |
| 2026-04-29 01:09 | 29.29712 | 79.21240 | 35786 ft | 427 kts | 317° |
| 2026-04-29 01:09 | 29.34207 | 79.16807 | 35826 ft | 427 kts | 317° |
| 2026-04-29 01:10 | 29.38692 | 79.12376 | 35855 ft | 427 kts | 317° |
| 2026-04-29 01:10 | 29.43171 | 79.07947 | 35876 ft | 426 kts | 317° |
| 2026-04-29 01:11 | 29.47657 | 79.03504 | 35866 ft | 426 kts | 317° |
| 2026-04-29 01:11 | 29.52135 | 78.99065 | 35864 ft | 427 kts | 317° |
| 2026-04-29 01:12 | 29.56632 | 78.94603 | 35867 ft | 426 kts | 317° |
| 2026-04-29 01:12 | 29.61102 | 78.90163 | 35892 ft | 426 kts | 317° |
| 2026-04-29 01:13 | 29.65583 | 78.85705 | 35903 ft | 426 kts | 317° |
| 2026-04-29 01:13 | 29.70032 | 78.81273 | 35899 ft | 425 kts | 317° |
| 2026-04-29 01:14 | 29.74500 | 78.76818 | 35891 ft | 425 kts | 317° |
| 2026-04-29 01:14 | 29.78978 | 78.72345 | 35896 ft | 425 kts | 317° |
| 2026-04-29 01:15 | 29.83449 | 78.67875 | 35915 ft | 426 kts | 317° |
| 2026-04-29 01:15 | 29.87909 | 78.63410 | 35942 ft | 426 kts | 317° |
| 2026-04-29 01:16 | 29.92395 | 78.58914 | 35945 ft | 426 kts | 317° |
| 2026-04-29 01:16 | 29.96846 | 78.54449 | 35961 ft | 426 kts | 317° |
| 2026-04-29 01:17 | 30.01322 | 78.49952 | 35963 ft | 426 kts | 317° |
| 2026-04-29 01:17 | 30.05786 | 78.45463 | 35944 ft | 426 kts | 317° |
| 2026-04-29 01:18 | 30.10239 | 78.40977 | 35929 ft | 426 kts | 317° |
| 2026-04-29 01:18 | 30.16975 | 78.34219 | 35933 ft | 425 kts | 317° |
| 2026-04-29 01:19 | 30.21392 | 78.29742 | 35947 ft | 426 kts | 317° |
| 2026-04-29 01:19 | 30.25851 | 78.25219 | 35954 ft | 427 kts | 317° |
| 2026-04-29 01:20 | 30.30338 | 78.20670 | 35980 ft | 427 kts | 317° |
| 2026-04-29 01:20 | 30.34784 | 78.16158 | 35982 ft | 427 kts | 317° |
| 2026-04-29 01:21 | 30.39275 | 78.11597 | 35975 ft | 427 kts | 317° |
| 2026-04-29 01:21 | 30.43718 | 78.07079 | 36021 ft | 428 kts | 317° |
| 2026-04-29 01:22 | 30.48209 | 78.02508 | 35993 ft | 428 kts | 317° |
| 2026-04-29 01:22 | 30.52659 | 77.97974 | 36009 ft | 427 kts | 317° |
| 2026-04-29 01:23 | 30.57123 | 77.93417 | 36013 ft | 428 kts | 317° |
| 2026-04-29 01:23 | 30.61562 | 77.88882 | 36044 ft | 427 kts | 316° |
| 2026-04-29 01:24 | 30.66010 | 77.84328 | 36059 ft | 427 kts | 316° |
| 2026-04-29 01:24 | 30.70458 | 77.79771 | 36057 ft | 427 kts | 317° |
| 2026-04-29 01:25 | 30.74931 | 77.75184 | 36072 ft | 427 kts | 316° |
| 2026-04-29 01:25 | 30.79375 | 77.70619 | 36094 ft | 427 kts | 316° |
| 2026-04-29 01:26 | 30.83817 | 77.66050 | 36104 ft | 427 kts | 316° |
| 2026-04-29 01:26 | 30.88254 | 77.61479 | 36118 ft | 427 kts | 316° |
| 2026-04-29 01:27 | 30.92682 | 77.56915 | 36126 ft | 427 kts | 316° |
| 2026-04-29 01:27 | 30.97126 | 77.52329 | 36129 ft | 426 kts | 316° |
| 2026-04-29 01:28 | 31.01576 | 77.47726 | 36164 ft | 428 kts | 316° |
| 2026-04-29 01:28 | 31.06005 | 77.43141 | 36164 ft | 428 kts | 316° |
| 2026-04-29 01:29 | 31.10467 | 77.38515 | 36128 ft | 428 kts | 316° |
| 2026-04-29 01:29 | 31.14891 | 77.33950 | 36131 ft | 427 kts | 316° |
| 2026-04-29 01:30 | 31.19327 | 77.29334 | 36091 ft | 427 kts | 316° |
| 2026-04-29 01:30 | 31.23768 | 77.24707 | 36011 ft | 427 kts | 316° |
| 2026-04-29 01:31 | 31.28183 | 77.20102 | 35998 ft | 428 kts | 316° |
| 2026-04-29 01:31 | 31.32628 | 77.15462 | 36046 ft | 428 kts | 316° |
| 2026-04-29 01:32 | 31.37068 | 77.10821 | 36110 ft | 430 kts | 316° |
| 2026-04-29 01:32 | 31.41524 | 77.06161 | 36136 ft | 430 kts | 316° |
| 2026-04-29 01:33 | 31.45985 | 77.01489 | 36136 ft | 430 kts | 316° |
| 2026-04-29 01:33 | 31.50428 | 76.96829 | 36115 ft | 429 kts | 316° |
| 2026-04-29 01:34 | 31.54865 | 76.92168 | 36086 ft | 430 kts | 316° |
| 2026-04-29 01:34 | 31.59322 | 76.87479 | 36071 ft | 431 kts | 316° |
| 2026-04-29 01:35 | 31.63770 | 76.82797 | 36022 ft | 431 kts | 316° |
| 2026-04-29 01:35 | 31.68228 | 76.78096 | 36020 ft | 431 kts | 316° |
| 2026-04-29 01:36 | 31.72692 | 76.73383 | 35989 ft | 431 kts | 316° |
| 2026-04-29 01:36 | 31.77111 | 76.68709 | 35998 ft | 431 kts | 316° |
| 2026-04-29 01:37 | 31.81586 | 76.63971 | 35971 ft | 431 kts | 316° |
| 2026-04-29 01:37 | 31.86029 | 76.59261 | 35956 ft | 430 kts | 316° |
| 2026-04-29 01:38 | 31.90462 | 76.54552 | 35939 ft | 430 kts | 316° |
| 2026-04-29 01:38 | 31.94901 | 76.49833 | 35937 ft | 431 kts | 316° |
| 2026-04-29 01:39 | 31.99320 | 76.45126 | 35928 ft | 432 kts | 316° |
| 2026-04-29 01:39 | 32.03795 | 76.40355 | 35906 ft | 432 kts | 316° |
| 2026-04-29 01:40 | 32.08249 | 76.35598 | 35917 ft | 432 kts | 316° |
| 2026-04-29 01:40 | 32.12681 | 76.30853 | 35898 ft | 431 kts | 315° |
| 2026-04-29 01:41 | 32.16961 | 76.26070 | 35903 ft | 430 kts | 312° |
| 2026-04-29 01:41 | 32.20917 | 76.20824 | 35877 ft | 429 kts | 309° |
| 2026-04-29 01:42 | 32.24826 | 76.15411 | 35890 ft | 429 kts | 309° |
| 2026-04-29 01:42 | 32.28684 | 76.10055 | 35924 ft | 429 kts | 309° |
| 2026-04-29 01:43 | 32.32549 | 76.04687 | 35935 ft | 429 kts | 309° |
| 2026-04-29 01:43 | 32.36419 | 75.99300 | 35949 ft | 429 kts | 309° |
| 2026-04-29 01:44 | 32.40284 | 75.93918 | 35988 ft | 428 kts | 308° |
| 2026-04-29 01:44 | 32.44142 | 75.88535 | 36000 ft | 428 kts | 309° |
| 2026-04-29 01:45 | 32.47979 | 75.83172 | 35992 ft | 427 kts | 309° |
| 2026-04-29 01:45 | 32.51837 | 75.77772 | 35976 ft | 428 kts | 309° |
| 2026-04-29 01:46 | 32.55687 | 75.72378 | 35963 ft | 428 kts | 309° |
| 2026-04-29 01:46 | 32.59512 | 75.67007 | 35997 ft | 427 kts | 309° |
| 2026-04-29 01:47 | 32.63341 | 75.61620 | 36044 ft | 427 kts | 309° |
| 2026-04-29 01:47 | 32.67164 | 75.56269 | 36052 ft | 428 kts | 310° |
| 2026-04-29 01:48 | 32.71515 | 75.51456 | 36045 ft | 429 kts | 320° |
| 2026-04-29 01:48 | 32.76527 | 75.47627 | 36046 ft | 432 kts | 330° |
| 2026-04-29 01:49 | 32.82123 | 75.44883 | 36070 ft | 436 kts | 340° |
| 2026-04-29 01:49 | 32.87949 | 75.42979 | 36079 ft | 438 kts | 342° |
| 2026-04-29 01:50 | 32.93829 | 75.41140 | 36104 ft | 438 kts | 342° |
| 2026-04-29 01:50 | 32.99728 | 75.39281 | 36106 ft | 438 kts | 342° |
| 2026-04-29 01:51 | 33.05609 | 75.37418 | 36124 ft | 439 kts | 342° |
| 2026-04-29 01:51 | 33.11517 | 75.35542 | 36119 ft | 439 kts | 342° |
| 2026-04-29 01:52 | 33.17405 | 75.33662 | 36127 ft | 438 kts | 342° |
| 2026-04-29 01:52 | 33.23319 | 75.31759 | 36131 ft | 439 kts | 342° |
| 2026-04-29 01:53 | 33.29197 | 75.29877 | 36151 ft | 440 kts | 342° |
| 2026-04-29 01:53 | 33.35106 | 75.27988 | 36178 ft | 440 kts | 342° |
| 2026-04-29 01:54 | 33.41051 | 75.26059 | 36178 ft | 439 kts | 340° |
| 2026-04-29 01:54 | 33.46700 | 75.23344 | 36022 ft | 436 kts | 330° |
| 2026-04-29 01:55 | 33.49336 | 75.21569 | 36160 ft | 436 kts | 326° |
| 2026-04-29 01:55 | 33.51813 | 75.19547 | 36184 ft | 435 kts | 321° |
| 2026-04-29 01:55 | 33.56321 | 75.14728 | 36202 ft | 432 kts | 312° |
| 2026-04-29 01:56 | 33.60371 | 75.09382 | 36193 ft | 433 kts | 310° |
| 2026-04-29 01:56 | 33.64398 | 75.03981 | 36167 ft | 441 kts | 310° |
| 2026-04-29 01:57 | 33.68520 | 74.98458 | 36153 ft | 445 kts | 310° |
| 2026-04-29 01:57 | 33.72011 | 74.93777 | 36095 ft | 446 kts | 310° |
| 2026-04-29 01:58 | 33.75937 | 74.88492 | 36061 ft | 455 kts | 311° |
| 2026-04-29 01:58 | 33.80222 | 74.82740 | 36002 ft | 465 kts | 311° |
| 2026-04-29 01:59 | 33.84547 | 74.76924 | 35987 ft | 469 kts | 311° |
| 2026-04-29 01:59 | 33.88890 | 74.71071 | 35983 ft | 469 kts | 311° |
| 2026-04-29 02:00 | 33.92498 | 74.66200 | 36023 ft | 469 kts | 311° |
| 2026-04-29 02:00 | 33.94318 | 74.63780 | 36148 ft | 461 kts | 311° |
| 2026-04-29 02:00 | 33.96439 | 74.60941 | 36233 ft | 446 kts | 310° |
| 2026-04-29 02:01 | 34.00491 | 74.55420 | 36294 ft | 440 kts | 310° |
| 2026-04-29 02:01 | 34.04562 | 74.49873 | 36273 ft | 437 kts | 310° |
| 2026-04-29 02:02 | 34.08544 | 74.44454 | 36200 ft | 432 kts | 310° |
| 2026-04-29 02:02 | 34.12532 | 74.39042 | 36193 ft | 430 kts | 310° |
| 2026-04-29 02:03 | 34.16500 | 74.33667 | 36198 ft | 429 kts | 310° |
| 2026-04-29 02:03 | 34.20447 | 74.28267 | 36219 ft | 428 kts | 309° |
| 2026-04-29 02:04 | 34.24372 | 74.22892 | 36228 ft | 428 kts | 309° |
| 2026-04-29 02:04 | 34.28312 | 74.17496 | 36253 ft | 427 kts | 310° |
| 2026-04-29 02:05 | 34.32225 | 74.12128 | 36268 ft | 426 kts | 309° |
| 2026-04-29 02:05 | 34.36140 | 74.06751 | 36309 ft | 427 kts | 309° |
| 2026-04-29 02:06 | 34.40055 | 74.01366 | 36320 ft | 426 kts | 309° |
| 2026-04-29 02:06 | 34.43948 | 73.96001 | 36330 ft | 426 kts | 309° |
| 2026-04-29 02:07 | 34.47883 | 73.90572 | 36326 ft | 426 kts | 310° |
| 2026-04-29 02:07 | 34.51784 | 73.85184 | 36324 ft | 426 kts | 309° |
| 2026-04-29 02:08 | 34.55681 | 73.79791 | 36313 ft | 425 kts | 309° |
| 2026-04-29 02:08 | 34.59595 | 73.74363 | 36354 ft | 426 kts | 309° |
| 2026-04-29 02:09 | 34.63460 | 73.68990 | 36326 ft | 426 kts | 309° |
| 2026-04-29 02:09 | 34.67355 | 73.63573 | 36330 ft | 425 kts | 309° |
| 2026-04-29 02:10 | 34.71308 | 73.58259 | 36301 ft | 427 kts | 317° |
| 2026-04-29 02:10 | 34.73814 | 73.56265 | 36302 ft | 432 kts | 332° |
| 2026-04-29 02:10 | 34.76682 | 73.55153 | 36336 ft | 439 kts | 347° |
| 2026-04-29 02:11 | 34.79739 | 73.55004 | 36349 ft | 448 kts | 2° |
| 2026-04-29 02:11 | 34.82834 | 73.55914 | 36340 ft | 457 kts | 18° |
| 2026-04-29 02:11 | 34.85601 | 73.57849 | 36339 ft | 466 kts | 35° |
| 2026-04-29 02:11 | 34.87927 | 73.60561 | 36382 ft | 470 kts | 43° |
| 2026-04-29 02:12 | 34.92387 | 73.66423 | 36405 ft | 471 kts | 44° |
| 2026-04-29 02:12 | 34.96835 | 73.72290 | 36417 ft | 471 kts | 44° |
| 2026-04-29 02:13 | 35.01319 | 73.78164 | 36431 ft | 471 kts | 44° |
| 2026-04-29 02:13 | 35.05798 | 73.84016 | 36463 ft | 471 kts | 44° |
| 2026-04-29 02:14 | 35.10276 | 73.89871 | 36468 ft | 470 kts | 44° |
| 2026-04-29 02:14 | 35.14724 | 73.95664 | 36471 ft | 470 kts | 44° |
| 2026-04-29 02:15 | 35.19210 | 74.01519 | 36125 ft | 472 kts | 44° |
| 2026-04-29 02:15 | 35.21442 | 74.04439 | 35587 ft | 474 kts | 45° |
| 2026-04-29 02:15 | 35.23684 | 74.07373 | 34934 ft | 477 kts | 46° |
| 2026-04-29 02:16 | 35.25946 | 74.10337 | 34285 ft | 479 kts | 47° |
| 2026-04-29 02:16 | 35.28187 | 74.13283 | 33614 ft | 480 kts | 47° |
| 2026-04-29 02:16 | 35.30455 | 74.16278 | 32736 ft | 481 kts | 47° |
| 2026-04-29 02:16 | 35.32735 | 74.19299 | 31836 ft | 482 kts | 47° |
| 2026-04-29 02:17 | 35.35007 | 74.22307 | 30812 ft | 480 kts | 47° |
| 2026-04-29 02:17 | 35.37265 | 74.25295 | 29976 ft | 473 kts | 47° |
| 2026-04-29 02:17 | 35.39449 | 74.28188 | 29232 ft | 465 kts | 47° |
| 2026-04-29 02:17 | 35.41623 | 74.31068 | 28509 ft | 459 kts | 47° |
| 2026-04-29 02:18 | 35.43783 | 74.33933 | 27782 ft | 455 kts | 47° |
| 2026-04-29 02:18 | 35.45933 | 74.36787 | 27055 ft | 456 kts | 47° |
| 2026-04-29 02:18 | 35.46651 | 74.37740 | 26805 ft | 456 kts | 47° |